createdAt,value
2023-03-05T00:01:57.406Z,2.30
2023-03-05T00:05:58.795Z,2.20
2023-03-05T00:10:04.523Z,2.30
2023-03-05T00:14:06.393Z,2.37
2023-03-05T00:18:07.833Z,2.10
2023-03-05T00:22:09.246Z,1.67
2023-03-05T00:26:12.033Z,2.33
2023-03-05T00:30:14.312Z,2.13
2023-03-05T00:34:18.781Z,2.30
2023-03-05T00:38:20.346Z,2.00
2023-03-05T00:42:23.186Z,2.27
2023-03-05T00:46:24.958Z,1.80
2023-03-05T00:50:26.656Z,2.00
2023-03-05T00:54:28.079Z,2.20
2023-03-05T00:58:31.024Z,2.60
2023-03-05T01:02:34.703Z,2.47
2023-03-05T01:06:36.296Z,2.67
2023-03-05T01:10:37.791Z,2.40
2023-03-05T01:14:40.540Z,2.10
2023-03-05T01:18:42.022Z,2.20
2023-03-05T01:22:43.767Z,1.43
2023-03-05T01:26:45.228Z,1.70
2023-03-05T01:30:49.615Z,2.03
2023-03-05T01:34:51.122Z,1.70
2023-03-05T01:38:52.725Z,1.77
2023-03-05T01:42:59.777Z,1.47
2023-03-05T01:47:02.533Z,1.60
2023-03-05T01:51:04.554Z,1.70
2023-03-05T01:55:09.832Z,1.77
2023-03-05T01:59:13.326Z,2.10
2023-03-05T02:03:16.510Z,1.63
2023-03-05T02:07:18.651Z,1.70
2023-03-05T02:11:20.261Z,1.50
2023-03-05T02:15:22.132Z,1.80
2023-03-05T02:19:24.990Z,1.60
2023-03-05T02:23:30.377Z,1.37
2023-03-05T02:27:33.271Z,1.97
2023-03-05T02:31:34.855Z,2.30
2023-03-05T02:35:36.433Z,1.53
2023-03-05T02:39:39.243Z,2.30
2023-03-05T02:43:41.507Z,1.67
2023-03-05T02:47:43.045Z,1.50
2023-03-05T02:51:44.496Z,2.20
2023-03-05T02:55:48.527Z,1.80
2023-03-05T02:59:50.633Z,2.10
2023-03-05T03:03:52.119Z,1.83
2023-03-05T03:07:53.530Z,2.60
2023-03-05T03:11:56.364Z,2.07
2023-03-05T03:16:02.292Z,2.43
2023-03-05T03:20:05.062Z,2.20
2023-03-05T03:24:06.910Z,2.40
2023-03-05T03:28:09.651Z,2.00
2023-03-05T03:32:11.174Z,1.83
2023-03-05T03:36:12.878Z,2.40
2023-03-05T03:40:14.451Z,2.70
2023-03-05T03:44:18.039Z,3.00
2023-03-05T03:48:19.498Z,2.60
2023-03-05T03:52:20.994Z,2.20
2023-03-05T03:56:22.498Z,2.27
2023-03-05T04:00:25.266Z,2.30
2023-03-05T04:04:26.901Z,2.83
2023-03-05T04:08:28.475Z,2.00
2023-03-05T04:12:29.931Z,2.40
2023-03-05T04:16:32.827Z,2.67
2023-03-05T04:20:34.243Z,2.23
2023-03-05T04:24:35.643Z,2.53
2023-03-05T04:28:37.415Z,2.17
2023-03-05T04:32:40.283Z,1.63
2023-03-05T04:36:41.740Z,1.87
2023-03-05T04:40:43.948Z,1.93
2023-03-05T04:44:45.613Z,1.90
2023-03-05T04:48:48.408Z,1.97
2023-03-05T04:52:50.074Z,2.23
2023-03-05T04:56:51.532Z,1.83
2023-03-05T05:00:52.999Z,2.47
2023-03-05T05:04:55.810Z,2.17
2023-03-05T05:08:57.610Z,1.77
2023-03-05T05:12:59.133Z,2.30
2023-03-05T05:17:00.610Z,2.30
2023-03-05T05:21:07.401Z,1.93
2023-03-05T05:25:10.170Z,1.90
2023-03-05T05:29:11.634Z,2.10
2023-03-05T05:33:13.043Z,1.90
2023-03-05T05:37:15.794Z,2.20
2023-03-05T05:41:18.715Z,1.90
2023-03-05T05:45:20.281Z,2.37
2023-03-05T05:49:21.775Z,2.27
2023-03-05T05:53:25.066Z,2.07
2023-03-05T05:57:26.545Z,1.83
2023-03-05T06:01:30.620Z,2.10
2023-03-05T06:05:32.065Z,1.83
2023-03-05T06:09:36.310Z,1.90
2023-03-05T06:13:38.701Z,1.97
2023-03-05T06:17:40.609Z,1.83
2023-03-05T06:21:42.723Z,2.20
2023-03-05T06:25:45.472Z,2.00
2023-03-05T06:29:46.945Z,2.03
2023-03-05T06:33:48.852Z,2.17
2023-03-05T06:37:50.230Z,2.40
2023-03-05T06:41:53.109Z,2.23
2023-03-05T06:46:02.351Z,2.03
2023-03-05T06:50:04.438Z,2.47
2023-03-05T06:54:08.833Z,2.40
2023-03-05T06:58:11.554Z,2.40
2023-03-05T07:02:13.061Z,2.50
2023-03-05T07:06:14.661Z,2.90
2023-03-05T07:10:16.244Z,3.00
2023-03-05T07:14:19.038Z,2.57
2023-03-05T07:18:20.602Z,2.80
2023-03-05T07:22:22.022Z,2.60
2023-03-05T07:26:24.114Z,2.40
2023-03-05T07:30:27.258Z,2.73
2023-03-05T07:34:28.646Z,2.47
2023-03-05T07:38:30.294Z,2.90
2023-03-05T07:42:31.848Z,2.87
2023-03-05T07:46:35.414Z,2.60
2023-03-05T07:50:36.850Z,2.90
2023-03-05T07:54:39.416Z,2.80
2023-03-05T07:58:41.049Z,3.43
2023-03-05T08:02:43.935Z,2.67
2023-03-05T08:06:45.371Z,2.60
2023-03-05T08:10:46.782Z,3.00
2023-03-05T08:14:48.447Z,3.00
2023-03-05T08:18:54.312Z,2.87
2023-03-05T08:22:55.770Z,3.20
2023-03-05T08:26:57.458Z,2.80
2023-03-05T08:30:58.892Z,3.03
2023-03-05T08:35:01.890Z,3.10
2023-03-05T08:39:03.506Z,3.60
2023-03-05T08:43:05.031Z,3.30
2023-03-05T08:47:08.036Z,3.57
2023-03-05T08:51:12.986Z,3.37
2023-03-05T08:55:14.450Z,3.37
2023-03-05T08:59:15.917Z,3.63
2023-03-05T09:03:18.089Z,3.93
2023-03-05T09:07:21.222Z,4.53
2023-03-05T09:11:23.278Z,4.23
2023-03-05T09:15:24.630Z,4.50
2023-03-05T09:19:26.035Z,3.87
2023-03-05T09:23:28.800Z,3.83
2023-03-05T09:27:33.298Z,3.60
2023-03-05T09:31:34.843Z,3.67
2023-03-05T09:35:37.721Z,2.90
2023-03-05T09:39:40.559Z,3.00
2023-03-05T09:43:51.857Z,2.70
2023-03-05T09:48:01.400Z,3.07
2023-03-05T09:52:11.260Z,2.87
2023-03-05T09:56:17.239Z,3.93
2023-03-05T10:00:32.406Z,2.67
2023-03-05T10:04:44.965Z,3.00
2023-03-05T10:08:53.519Z,3.00
2023-03-05T10:13:03.784Z,2.83
2023-03-05T10:17:22.998Z,3.27
2023-03-05T10:21:30.818Z,3.87
2023-03-05T10:25:48.811Z,3.43
2023-03-05T10:30:06.104Z,3.47
2023-03-05T10:34:23.448Z,4.10
2023-03-05T10:38:42.982Z,3.77
2023-03-05T10:42:52.434Z,4.40
2023-03-05T10:46:57.927Z,4.57
2023-03-05T10:51:04.564Z,4.90
2023-03-05T10:55:14.387Z,5.27
2023-03-05T10:59:16.442Z,5.40
2023-03-05T11:03:19.204Z,4.80
2023-03-05T11:07:36.549Z,4.60
2023-03-05T11:11:38.133Z,4.47
2023-03-05T11:15:39.688Z,4.73
2023-03-05T11:19:42.699Z,4.43
2023-03-05T11:23:44.171Z,4.90
2023-03-05T11:27:52.011Z,4.60
2023-03-05T11:31:56.511Z,4.43
2023-03-05T11:36:26.726Z,4.43
2023-03-05T11:40:30.508Z,5.00
2023-03-05T11:44:35.466Z,5.00
2023-03-05T11:48:39.430Z,4.70
2023-03-05T11:52:46.231Z,4.50
2023-03-05T11:56:47.774Z,5.00
2023-03-05T12:00:49.342Z,5.07
2023-03-05T12:04:51.213Z,4.50
2023-03-05T12:08:55.851Z,5.63
2023-03-05T12:13:05.034Z,5.33
2023-03-05T12:17:15.846Z,5.20
2023-03-05T12:21:27.480Z,5.57
2023-03-05T12:25:33.685Z,5.90
2023-03-05T12:29:41.623Z,5.37
2023-03-05T12:33:43.644Z,4.90
2023-03-05T12:38:02.946Z,5.17
2023-03-05T12:42:45.854Z,5.17
2023-03-05T12:47:15.269Z,6.17
2023-03-05T12:51:38.045Z,6.10
2023-03-05T12:55:51.004Z,7.70
2023-03-05T13:00:01.255Z,7.13
2023-03-05T13:04:05.959Z,7.53
2023-03-05T13:08:15.800Z,6.63
2023-03-05T13:12:17.642Z,7.10
2023-03-05T13:16:23.311Z,6.43
2023-03-05T13:20:29.282Z,6.70
2023-03-05T13:24:31.091Z,7.10
2023-03-05T13:28:32.887Z,6.43
2023-03-05T13:32:38.085Z,5.77
2023-03-05T13:36:40.249Z,5.63
2023-03-05T13:40:41.794Z,6.90
2023-03-05T13:44:43.784Z,5.97
2023-03-05T13:48:46.509Z,5.00
2023-03-05T13:52:47.885Z,5.17
2023-03-05T13:56:54.220Z,5.27
2023-03-05T14:01:03.495Z,5.70
2023-03-05T14:05:15.144Z,5.03
2023-03-05T14:09:20.567Z,5.40
2023-03-05T14:13:24.724Z,5.60
2023-03-05T14:17:39.417Z,5.37
2023-03-05T14:21:47.739Z,4.30
2023-03-05T14:25:49.264Z,4.60
2023-03-05T14:29:50.934Z,4.90
2023-03-05T14:33:53.661Z,4.50
2023-03-05T14:37:58.193Z,4.53
2023-03-05T14:42:29.089Z,4.07
2023-03-05T14:46:30.559Z,4.27
2023-03-05T14:50:34.069Z,4.10
2023-03-05T14:54:37.271Z,4.67
2023-03-05T14:58:38.735Z,3.93
2023-03-05T15:02:40.239Z,3.87
2023-03-05T15:06:41.984Z,4.20
2023-03-05T15:10:44.831Z,4.03
2023-03-05T15:14:46.229Z,4.37
2023-03-05T15:18:47.972Z,4.63
2023-03-05T15:22:49.582Z,4.20
2023-03-05T15:26:52.557Z,5.00
2023-03-05T15:30:54.041Z,4.73
2023-03-05T15:34:58.087Z,4.47
2023-03-05T15:38:59.493Z,5.10
2023-03-05T15:43:02.630Z,5.30
2023-03-05T15:47:04.012Z,5.10
2023-03-05T15:51:07.211Z,5.60
2023-03-05T15:55:09.508Z,6.10
2023-03-05T15:59:12.351Z,5.70
2023-03-05T16:03:13.770Z,6.00
2023-03-05T16:07:15.589Z,5.60
2023-03-05T16:11:19.784Z,5.30
2023-03-05T16:15:23.252Z,5.40
2023-03-05T16:19:25.845Z,5.40
2023-03-05T16:23:27.352Z,4.90
2023-03-05T16:27:29.309Z,5.07
2023-03-05T16:31:33.667Z,4.50
2023-03-05T16:35:35.171Z,4.80
2023-03-05T16:39:36.738Z,5.07
2023-03-05T16:43:38.243Z,4.50
2023-03-05T16:47:41.198Z,4.40
2023-03-05T16:51:42.619Z,4.80
2023-03-05T16:55:44.061Z,5.10
2023-03-05T16:59:45.480Z,4.97
2023-03-05T17:03:48.881Z,5.33
2023-03-05T17:07:50.379Z,5.40
2023-03-05T17:11:52.037Z,5.70
2023-03-05T17:15:56.270Z,5.20
2023-03-05T17:20:00.324Z,5.47
2023-03-05T17:24:01.786Z,6.53
2023-03-05T17:28:03.546Z,5.73
2023-03-05T17:32:06.093Z,5.97
2023-03-05T17:36:14.664Z,5.87
2023-03-05T17:40:16.898Z,6.00
2023-03-05T17:44:18.333Z,6.00
2023-03-05T17:48:19.807Z,5.80
2023-03-05T17:52:22.597Z,5.93
2023-03-05T17:56:25.239Z,5.63
2023-03-05T18:00:30.076Z,5.50
2023-03-05T18:04:31.605Z,5.50
2023-03-05T18:08:34.350Z,4.83
2023-03-05T18:12:36.262Z,4.63
2023-03-05T18:16:37.812Z,5.50
2023-03-05T18:20:39.357Z,4.97
2023-03-05T18:24:42.142Z,4.53
2023-03-05T18:28:43.680Z,4.40
2023-03-05T18:32:45.025Z,4.80
2023-03-05T18:36:46.571Z,4.97
2023-03-05T18:40:52.623Z,5.20
2023-03-05T18:44:54.006Z,4.90
2023-03-05T18:48:55.511Z,5.27
2023-03-05T18:52:57.205Z,5.27
2023-03-05T18:56:59.959Z,5.40
2023-03-05T19:01:01.397Z,4.63
2023-03-05T19:05:03.164Z,4.80
2023-03-05T19:09:34.440Z,4.60
2023-03-05T19:13:37.222Z,4.27
2023-03-05T19:17:38.687Z,4.20
2023-03-05T19:21:40.379Z,4.50
2023-03-05T19:25:41.773Z,3.80
2023-03-05T19:29:44.579Z,4.10
2023-03-05T19:33:45.943Z,3.90
2023-03-05T19:37:47.327Z,4.53
2023-03-05T19:41:48.745Z,4.33
2023-03-05T19:45:51.483Z,3.90
2023-03-05T19:49:52.928Z,5.03
2023-03-05T19:53:54.348Z,5.10
2023-03-05T19:57:55.718Z,6.57
2023-03-05T20:01:58.503Z,6.37
2023-03-05T20:06:00.037Z,6.97
2023-03-05T20:10:01.501Z,7.70
2023-03-05T20:14:03.067Z,8.37
2023-03-05T20:18:05.882Z,7.10
2023-03-05T20:22:07.309Z,6.90
2023-03-05T20:26:08.669Z,6.97
2023-03-05T20:30:13.058Z,7.37
2023-03-05T20:34:18.430Z,8.00
2023-03-05T20:38:20.876Z,8.20
2023-03-05T20:42:22.371Z,8.77
2023-03-05T20:46:24.997Z,9.53
2023-03-05T20:50:27.860Z,9.83
2023-03-05T20:54:29.295Z,10.60
2023-03-05T20:58:30.699Z,10.20
2023-03-05T21:02:32.115Z,9.77
2023-03-05T21:06:35.455Z,9.87
2023-03-05T21:10:37.544Z,10.13
2023-03-05T21:14:38.918Z,9.57
2023-03-05T21:18:40.435Z,10.17
2023-03-05T21:22:43.151Z,9.67
2023-03-05T21:26:44.596Z,9.47
2023-03-05T21:30:47.882Z,9.70
2023-03-05T21:34:49.267Z,10.00
2023-03-05T21:38:51.996Z,9.37
2023-03-05T21:42:53.450Z,10.27
2023-03-05T21:46:54.808Z,9.30
2023-03-05T21:50:56.543Z,9.00
2023-03-05T21:54:59.277Z,8.83
2023-03-05T21:59:00.658Z,9.00
2023-03-05T22:03:02.042Z,9.57
2023-03-05T22:07:04.941Z,8.87
2023-03-05T22:11:10.044Z,9.60
2023-03-05T22:15:11.673Z,8.93
2023-03-05T22:19:13.047Z,8.40
2023-03-05T22:23:15.674Z,8.13
2023-03-05T22:27:18.401Z,8.10
2023-03-05T22:31:21.027Z,8.00
2023-03-05T22:35:22.453Z,7.40
2023-03-05T22:39:23.857Z,6.97
2023-03-05T22:43:26.621Z,7.03
2023-03-05T22:47:27.998Z,7.07
2023-03-05T22:51:29.376Z,7.80
2023-03-05T22:55:30.780Z,8.17
2023-03-05T22:59:33.497Z,8.83
2023-03-05T23:03:34.946Z,8.80
2023-03-05T23:07:38.887Z,8.57
2023-03-05T23:11:40.452Z,9.63
2023-03-05T23:15:43.164Z,8.30
2023-03-05T23:19:44.561Z,7.30
2023-03-05T23:23:45.964Z,8.10
2023-03-05T23:27:47.843Z,7.57
2023-03-05T23:31:53.695Z,7.20
2023-03-05T23:35:57.667Z,7.00
2023-03-05T23:39:59.226Z,6.27
2023-03-05T23:44:00.617Z,7.07
2023-03-05T23:48:03.779Z,6.60
2023-03-05T23:52:05.700Z,6.40
2023-03-05T23:56:11.514Z,5.63
